Eisenstein, Wisconsin
Current Conditions -  °F | °C
As of 5:15 PM on Wednesday 26 Nov 2014 (Local Time) from KPBH Reporting Station
Overcast Overcast  
Wind Chill: 21°   Ceiling: 1700
Heat Index: 21°   Visibility: 10mi
Dew Point: 19°   Wind: 3mph
Humidity: 91%   Direction: 320°NW
Pressure: 30.16"   Gusts: NA
Location:  45.9599°N, 90.2362°W
Report Text: KPBH 262315Z AUTO 32003KT 10SM OVC017 M06/M07 A3016 RMK AO2 T10621075
Loading
Personal Weather Stations






























Interactive Weather Map New forecast layout! Learn more

10-Day Weather Forecast

Advertisements
Track Severe Weather on mobile